< < Back
Terminal Aerodrome Forecast


Current Version              Previous Versions:   1  2  3  4  5  6  7  8  9  

Terminal Aerodrome Forecast

660
FTUS44 KOHX 250650 AAA
TAFCSV
TAF AMD
KCSV 250650Z 2507/2606 00000KT 5SM BR SKC
      TEMPO 2507/2511 2SM BR
     FM251200 00000KT P6SM SKC
     FM251900 27004KT P6SM VCTS SCT040CB BKN250
     FM252300 28002KT P6SM BKN250=



Latest METAR

197
SAUS70 KWBC 260600 RRC
MTRCSV
METAR KCSV 260553Z AUTO 00000KT 10SM CLR 24/22 A3010 RMK AO2 SLP164
T02440217 10289 20228 403170211 55003


USA.gov is the U.S. government's official web portal to all federal, state and local government web resources and services.